sensor_id;sensor_type;location;lat;lon;timestamp;P1;durP1;ratioP1;P2;durP2;ratioP2
79430;SDS011;68883;45.932;6.060;2024-02-21T00:00:56;6.80;;;2.58;;
79430;SDS011;68883;45.932;6.060;2024-02-21T00:03:22;4.70;;;2.20;;
79430;SDS011;68883;45.932;6.060;2024-02-21T00:05:47;4.53;;;2.42;;
79430;SDS011;68883;45.932;6.060;2024-02-21T00:08:13;3.25;;;2.05;;
79430;SDS011;68883;45.932;6.060;2024-02-21T00:10:38;5.28;;;2.38;;
79430;SDS011;68883;45.932;6.060;2024-02-21T00:13:04;8.38;;;1.80;;
79430;SDS011;68883;45.932;6.060;2024-02-21T00:15:29;3.67;;;2.10;;
79430;SDS011;68883;45.932;6.060;2024-02-21T00:17:55;4.05;;;2.42;;
79430;SDS011;68883;45.932;6.060;2024-02-21T00:20:21;4.25;;;2.00;;
79430;SDS011;68883;45.932;6.060;2024-02-21T00:22:46;4.20;;;2.22;;
79430;SDS011;68883;45.932;6.060;2024-02-21T00:25:12;4.05;;;2.35;;
79430;SDS011;68883;45.932;6.060;2024-02-21T00:27:38;4.85;;;2.85;;
79430;SDS011;68883;45.932;6.060;2024-02-21T00:30:04;3.65;;;2.10;;
79430;SDS011;68883;45.932;6.060;2024-02-21T00:32:31;5.43;;;2.35;;
79430;SDS011;68883;45.932;6.060;2024-02-21T00:34:57;3.40;;;2.38;;
79430;SDS011;68883;45.932;6.060;2024-02-21T00:37:22;5.18;;;2.38;;
79430;SDS011;68883;45.932;6.060;2024-02-21T00:39:48;6.13;;;2.60;;
79430;SDS011;68883;45.932;6.060;2024-02-21T00:42:14;6.35;;;2.60;;
79430;SDS011;68883;45.932;6.060;2024-02-21T00:44:39;4.68;;;2.25;;
79430;SDS011;68883;45.932;6.060;2024-02-21T00:47:05;6.32;;;3.20;;
79430;SDS011;68883;45.932;6.060;2024-02-21T00:49:30;3.55;;;2.22;;
79430;SDS011;68883;45.932;6.060;2024-02-21T00:51:56;7.72;;;2.72;;
79430;SDS011;68883;45.932;6.060;2024-02-21T00:54:21;3.40;;;1.95;;
79430;SDS011;68883;45.932;6.060;2024-02-21T00:56:47;8.68;;;2.47;;
79430;SDS011;68883;45.932;6.060;2024-02-21T00:59:13;4.38;;;2.42;;
79430;SDS011;68883;45.932;6.060;2024-02-21T01:01:39;5.68;;;2.50;;
79430;SDS011;68883;45.932;6.060;2024-02-21T01:04:07;3.28;;;2.28;;
79430;SDS011;68883;45.932;6.060;2024-02-21T01:06:33;4.68;;;2.50;;
79430;SDS011;68883;45.932;6.060;2024-02-21T01:08:59;5.18;;;2.95;;
79430;SDS011;68883;45.932;6.060;2024-02-21T01:11:24;4.72;;;2.20;;
79430;SDS011;68883;45.932;6.060;2024-02-21T01:13:50;4.47;;;2.55;;
79430;SDS011;68883;45.932;6.060;2024-02-21T01:16:15;4.18;;;2.75;;
79430;SDS011;68883;45.932;6.060;2024-02-21T01:18:41;7.90;;;2.65;;
79430;SDS011;68883;45.932;6.060;2024-02-21T01:21:07;3.78;;;2.30;;
79430;SDS011;68883;45.932;6.060;2024-02-21T01:23:36;4.43;;;2.13;;
79430;SDS011;68883;45.932;6.060;2024-02-21T01:26:04;7.05;;;2.63;;
79430;SDS011;68883;45.932;6.060;2024-02-21T01:28:30;3.45;;;2.25;;
79430;SDS011;68883;45.932;6.060;2024-02-21T01:30:56;5.38;;;2.35;;
79430;SDS011;68883;45.932;6.060;2024-02-21T01:33:22;5.20;;;2.50;;
79430;SDS011;68883;45.932;6.060;2024-02-21T01:35:48;4.13;;;2.50;;
79430;SDS011;68883;45.932;6.060;2024-02-21T01:38:14;5.30;;;2.33;;
79430;SDS011;68883;45.932;6.060;2024-02-21T01:40:40;5.90;;;2.22;;
79430;SDS011;68883;45.932;6.060;2024-02-21T01:54:32;4.55;;;2.35;;
79430;SDS011;68883;45.932;6.060;2024-02-21T01:56:57;5.20;;;2.70;;
79430;SDS011;68883;45.932;6.060;2024-02-21T01:59:23;4.82;;;2.40;;
79430;SDS011;68883;45.932;6.060;2024-02-21T02:01:49;3.78;;;2.42;;
79430;SDS011;68883;45.932;6.060;2024-02-21T02:04:16;5.45;;;2.53;;
79430;SDS011;68883;45.932;6.060;2024-02-21T02:06:42;4.13;;;2.33;;
79430;SDS011;68883;45.932;6.060;2024-02-21T02:09:08;4.68;;;2.10;;
79430;SDS011;68883;45.932;6.060;2024-02-21T02:11:33;3.63;;;2.10;;
79430;SDS011;68883;45.932;6.060;2024-02-21T02:13:59;3.45;;;2.35;;
79430;SDS011;68883;45.932;6.060;2024-02-21T02:16:24;4.57;;;2.00;;
79430;SDS011;68883;45.932;6.060;2024-02-21T02:18:50;6.05;;;2.50;;
79430;SDS011;68883;45.932;6.060;2024-02-21T02:21:49;4.07;;;1.90;;
79430;SDS011;68883;45.932;6.060;2024-02-21T02:24:11;5.40;;;2.35;;
79430;SDS011;68883;45.932;6.060;2024-02-21T02:26:39;6.18;;;2.10;;
79430;SDS011;68883;45.932;6.060;2024-02-21T02:29:05;6.55;;;2.45;;
79430;SDS011;68883;45.932;6.060;2024-02-21T02:31:30;5.00;;;2.22;;
79430;SDS011;68883;45.932;6.060;2024-02-21T02:33:56;3.13;;;2.05;;
79430;SDS011;68883;45.932;6.060;2024-02-21T02:36:21;3.88;;;2.25;;
79430;SDS011;68883;45.932;6.060;2024-02-21T02:38:47;3.75;;;1.88;;
79430;SDS011;68883;45.932;6.060;2024-02-21T02:41:12;4.05;;;2.33;;
79430;SDS011;68883;45.932;6.060;2024-02-21T02:43:38;4.05;;;2.20;;
79430;SDS011;68883;45.932;6.060;2024-02-21T02:46:03;3.13;;;1.90;;
79430;SDS011;68883;45.932;6.060;2024-02-21T02:48:29;6.80;;;1.73;;
79430;SDS011;68883;45.932;6.060;2024-02-21T02:50:54;7.03;;;1.67;;
79430;SDS011;68883;45.932;6.060;2024-02-21T02:53:20;2.75;;;1.67;;
79430;SDS011;68883;45.932;6.060;2024-02-21T02:55:45;4.35;;;2.00;;
79430;SDS011;68883;45.932;6.060;2024-02-21T02:58:11;3.50;;;1.85;;
79430;SDS011;68883;45.932;6.060;2024-02-21T03:00:37;3.95;;;2.47;;
79430;SDS011;68883;45.932;6.060;2024-02-21T03:03:04;3.60;;;2.10;;
79430;SDS011;68883;45.932;6.060;2024-02-21T03:05:29;3.20;;;2.17;;
79430;SDS011;68883;45.932;6.060;2024-02-21T03:07:55;2.83;;;1.80;;
79430;SDS011;68883;45.932;6.060;2024-02-21T03:10:20;3.03;;;2.13;;
79430;SDS011;68883;45.932;6.060;2024-02-21T03:12:46;6.57;;;2.75;;
79430;SDS011;68883;45.932;6.060;2024-02-21T03:15:12;6.95;;;2.92;;
79430;SDS011;68883;45.932;6.060;2024-02-21T03:17:38;6.95;;;2.20;;
79430;SDS011;68883;45.932;6.060;2024-02-21T03:20:04;3.42;;;2.03;;
79430;SDS011;68883;45.932;6.060;2024-02-21T03:22:31;3.58;;;2.00;;
79430;SDS011;68883;45.932;6.060;2024-02-21T03:27:23;3.83;;;1.90;;
79430;SDS011;68883;45.932;6.060;2024-02-21T03:29:48;3.58;;;1.70;;
79430;SDS011;68883;45.932;6.060;2024-02-21T03:32:14;7.20;;;2.42;;
79430;SDS011;68883;45.932;6.060;2024-02-21T03:34:41;5.88;;;2.67;;
79430;SDS011;68883;45.932;6.060;2024-02-21T03:39:32;4.32;;;2.47;;
79430;SDS011;68883;45.932;6.060;2024-02-21T03:41:58;4.80;;;2.50;;
79430;SDS011;68883;45.932;6.060;2024-02-21T03:44:25;2.92;;;1.95;;
79430;SDS011;68883;45.932;6.060;2024-02-21T03:46:52;5.63;;;1.80;;
79430;SDS011;68883;45.932;6.060;2024-02-21T03:49:17;7.22;;;2.30;;
79430;SDS011;68883;45.932;6.060;2024-02-21T03:51:43;5.90;;;2.60;;
79430;SDS011;68883;45.932;6.060;2024-02-21T03:54:08;4.07;;;2.25;;
79430;SDS011;68883;45.932;6.060;2024-02-21T03:56:37;6.80;;;2.72;;
79430;SDS011;68883;45.932;6.060;2024-02-21T03:59:05;2.75;;;1.75;;
79430;SDS011;68883;45.932;6.060;2024-02-21T04:01:32;5.60;;;2.47;;
79430;SDS011;68883;45.932;6.060;2024-02-21T04:03:57;5.43;;;2.30;;
79430;SDS011;68883;45.932;6.060;2024-02-21T04:06:23;5.00;;;1.98;;
79430;SDS011;68883;45.932;6.060;2024-02-21T04:08:48;3.08;;;2.10;;
79430;SDS011;68883;45.932;6.060;2024-02-21T04:11:14;5.47;;;2.20;;
79430;SDS011;68883;45.932;6.060;2024-02-21T04:13:39;3.83;;;2.13;;
79430;SDS011;68883;45.932;6.060;2024-02-21T04:16:05;3.58;;;2.05;;
79430;SDS011;68883;45.932;6.060;2024-02-21T04:18:31;5.05;;;2.30;;
79430;SDS011;68883;45.932;6.060;2024-02-21T04:20:56;6.30;;;2.17;;
79430;SDS011;68883;45.932;6.060;2024-02-21T04:23:22;3.28;;;2.00;;
79430;SDS011;68883;45.932;6.060;2024-02-21T04:25:47;4.82;;;2.40;;
79430;SDS011;68883;45.932;6.060;2024-02-21T04:28:13;4.90;;;2.20;;
79430;SDS011;68883;45.932;6.060;2024-02-21T04:30:38;4.50;;;1.98;;
79430;SDS011;68883;45.932;6.060;2024-02-21T04:33:04;5.47;;;2.03;;
79430;SDS011;68883;45.932;6.060;2024-02-21T04:35:29;5.38;;;3.40;;
79430;SDS011;68883;45.932;6.060;2024-02-21T04:37:55;4.00;;;1.70;;
79430;SDS011;68883;45.932;6.060;2024-02-21T04:40:20;4.35;;;2.15;;
79430;SDS011;68883;45.932;6.060;2024-02-21T04:42:46;3.85;;;2.30;;
79430;SDS011;68883;45.932;6.060;2024-02-21T04:45:11;5.43;;;2.45;;
79430;SDS011;68883;45.932;6.060;2024-02-21T04:47:37;3.28;;;2.17;;
79430;SDS011;68883;45.932;6.060;2024-02-21T04:50:02;4.82;;;2.35;;
79430;SDS011;68883;45.932;6.060;2024-02-21T04:52:29;4.65;;;2.67;;
79430;SDS011;68883;45.932;6.060;2024-02-21T04:54:55;5.85;;;2.40;;
79430;SDS011;68883;45.932;6.060;2024-02-21T04:57:21;4.35;;;2.28;;
79430;SDS011;68883;45.932;6.060;2024-02-21T04:59:46;3.10;;;2.10;;
79430;SDS011;68883;45.932;6.060;2024-02-21T05:02:15;7.65;;;2.92;;
79430;SDS011;68883;45.932;6.060;2024-02-21T05:04:44;5.15;;;2.15;;
79430;SDS011;68883;45.932;6.060;2024-02-21T05:07:10;8.32;;;2.60;;
79430;SDS011;68883;45.932;6.060;2024-02-21T05:09:37;5.97;;;3.08;;
79430;SDS011;68883;45.932;6.060;2024-02-21T05:12:02;6.72;;;2.92;;
79430;SDS011;68883;45.932;6.060;2024-02-21T05:14:28;6.05;;;2.45;;
79430;SDS011;68883;45.932;6.060;2024-02-21T05:16:54;4.75;;;2.22;;
79430;SDS011;68883;45.932;6.060;2024-02-21T05:19:19;9.82;;;2.60;;
79430;SDS011;68883;45.932;6.060;2024-02-21T05:21:45;6.90;;;2.30;;
79430;SDS011;68883;45.932;6.060;2024-02-21T05:24:11;3.60;;;2.20;;
79430;SDS011;68883;45.932;6.060;2024-02-21T05:26:36;5.03;;;2.38;;
79430;SDS011;68883;45.932;6.060;2024-02-21T05:29:02;4.00;;;2.17;;
79430;SDS011;68883;45.932;6.060;2024-02-21T05:31:42;4.90;;;2.65;;
79430;SDS011;68883;45.932;6.060;2024-02-21T05:34:28;3.33;;;2.00;;
79430;SDS011;68883;45.932;6.060;2024-02-21T05:36:54;2.30;;;1.70;;
79430;SDS011;68883;45.932;6.060;2024-02-21T05:39:19;4.07;;;2.30;;
79430;SDS011;68883;45.932;6.060;2024-02-21T05:41:47;3.60;;;2.33;;
79430;SDS011;68883;45.932;6.060;2024-02-21T05:44:13;5.55;;;2.10;;
79430;SDS011;68883;45.932;6.060;2024-02-21T05:46:39;2.63;;;2.03;;
79430;SDS011;68883;45.932;6.060;2024-02-21T05:49:04;3.63;;;1.80;;
79430;SDS011;68883;45.932;6.060;2024-02-21T05:51:32;4.90;;;2.00;;
79430;SDS011;68883;45.932;6.060;2024-02-21T05:53:58;3.75;;;2.20;;
79430;SDS011;68883;45.932;6.060;2024-02-21T05:56:24;3.45;;;1.88;;
79430;SDS011;68883;45.932;6.060;2024-02-21T05:58:50;4.18;;;1.98;;
79430;SDS011;68883;45.932;6.060;2024-02-21T06:01:15;5.63;;;2.05;;
79430;SDS011;68883;45.932;6.060;2024-02-21T06:03:41;3.97;;;1.90;;
79430;SDS011;68883;45.932;6.060;2024-02-21T06:06:06;3.70;;;2.05;;
79430;SDS011;68883;45.932;6.060;2024-02-21T06:08:32;1.80;;;1.58;;
79430;SDS011;68883;45.932;6.060;2024-02-21T06:10:57;4.05;;;2.05;;
79430;SDS011;68883;45.932;6.060;2024-02-21T06:13:23;3.15;;;1.85;;
79430;SDS011;68883;45.932;6.060;2024-02-21T06:18:19;4.30;;;2.00;;
79430;SDS011;68883;45.932;6.060;2024-02-21T06:20:45;5.18;;;2.63;;
79430;SDS011;68883;45.932;6.060;2024-02-21T06:23:11;4.97;;;1.73;;
79430;SDS011;68883;45.932;6.060;2024-02-21T06:25:38;4.45;;;2.00;;
79430;SDS011;68883;45.932;6.060;2024-02-21T06:28:04;3.65;;;1.92;;
79430;SDS011;68883;45.932;6.060;2024-02-21T06:30:30;4.63;;;2.47;;
79430;SDS011;68883;45.932;6.060;2024-02-21T06:32:55;4.60;;;1.98;;
79430;SDS011;68883;45.932;6.060;2024-02-21T06:35:21;7.65;;;3.22;;
79430;SDS011;68883;45.932;6.060;2024-02-21T06:37:49;5.28;;;2.22;;
79430;SDS011;68883;45.932;6.060;2024-02-21T06:40:21;5.13;;;1.95;;
79430;SDS011;68883;45.932;6.060;2024-02-21T06:42:48;4.38;;;2.00;;
79430;SDS011;68883;45.932;6.060;2024-02-21T06:45:14;3.75;;;2.10;;
79430;SDS011;68883;45.932;6.060;2024-02-21T06:47:39;6.40;;;2.08;;
79430;SDS011;68883;45.932;6.060;2024-02-21T06:50:06;2.85;;;2.10;;
79430;SDS011;68883;45.932;6.060;2024-02-21T06:52:34;6.25;;;2.80;;
79430;SDS011;68883;45.932;6.060;2024-02-21T06:54:59;7.35;;;2.08;;
79430;SDS011;68883;45.932;6.060;2024-02-21T06:57:25;7.53;;;2.47;;
79430;SDS011;68883;45.932;6.060;2024-02-21T06:59:50;13.38;;;4.72;;
79430;SDS011;68883;45.932;6.060;2024-02-21T07:02:16;10.32;;;3.38;;
79430;SDS011;68883;45.932;6.060;2024-02-21T07:04:41;3.90;;;2.40;;
79430;SDS011;68883;45.932;6.060;2024-02-21T07:07:08;8.75;;;2.60;;
79430;SDS011;68883;45.932;6.060;2024-02-21T07:09:34;3.50;;;2.20;;
79430;SDS011;68883;45.932;6.060;2024-02-21T07:12:00;5.30;;;2.15;;
79430;SDS011;68883;45.932;6.060;2024-02-21T07:14:25;7.25;;;2.47;;
79430;SDS011;68883;45.932;6.060;2024-02-21T07:16:51;2.53;;;1.70;;
79430;SDS011;68883;45.932;6.060;2024-02-21T07:19:17;2.90;;;1.90;;
79430;SDS011;68883;45.932;6.060;2024-02-21T07:21:42;4.45;;;2.13;;
79430;SDS011;68883;45.932;6.060;2024-02-21T07:24:08;6.40;;;2.58;;
79430;SDS011;68883;45.932;6.060;2024-02-21T07:26:34;4.65;;;2.17;;
79430;SDS011;68883;45.932;6.060;2024-02-21T07:28:59;5.85;;;2.80;;
79430;SDS011;68883;45.932;6.060;2024-02-21T07:31:25;4.43;;;2.50;;
79430;SDS011;68883;45.932;6.060;2024-02-21T07:33:51;4.25;;;2.38;;
79430;SDS011;68883;45.932;6.060;2024-02-21T07:36:23;5.45;;;2.47;;
79430;SDS011;68883;45.932;6.060;2024-02-21T07:38:53;3.83;;;1.90;;
79430;SDS011;68883;45.932;6.060;2024-02-21T07:41:19;4.10;;;2.45;;
79430;SDS011;68883;45.932;6.060;2024-02-21T07:43:44;5.05;;;1.95;;
79430;SDS011;68883;45.932;6.060;2024-02-21T07:46:10;3.83;;;2.00;;
79430;SDS011;68883;45.932;6.060;2024-02-21T07:48:35;3.63;;;1.98;;
79430;SDS011;68883;45.932;6.060;2024-02-21T07:51:01;8.55;;;2.63;;
79430;SDS011;68883;45.932;6.060;2024-02-21T07:53:26;6.47;;;2.72;;
79430;SDS011;68883;45.932;6.060;2024-02-21T07:55:52;7.85;;;3.22;;
79430;SDS011;68883;45.932;6.060;2024-02-21T07:58:17;6.22;;;2.50;;
79430;SDS011;68883;45.932;6.060;2024-02-21T08:00:43;5.75;;;2.70;;
79430;SDS011;68883;45.932;6.060;2024-02-21T08:03:08;5.28;;;2.97;;
79430;SDS011;68883;45.932;6.060;2024-02-21T08:05:34;9.95;;;2.47;;
79430;SDS011;68883;45.932;6.060;2024-02-21T08:08:00;7.60;;;2.40;;
79430;SDS011;68883;45.932;6.060;2024-02-21T08:10:25;3.42;;;1.98;;
79430;SDS011;68883;45.932;6.060;2024-02-21T08:12:51;7.22;;;2.63;;
79430;SDS011;68883;45.932;6.060;2024-02-21T08:15:16;5.20;;;2.72;;
79430;SDS011;68883;45.932;6.060;2024-02-21T08:17:42;6.32;;;2.67;;
79430;SDS011;68883;45.932;6.060;2024-02-21T08:20:08;7.57;;;3.05;;
79430;SDS011;68883;45.932;6.060;2024-02-21T08:22:36;3.67;;;2.07;;
79430;SDS011;68883;45.932;6.060;2024-02-21T08:25:02;3.03;;;2.00;;
79430;SDS011;68883;45.932;6.060;2024-02-21T08:27:30;4.07;;;1.90;;
79430;SDS011;68883;45.932;6.060;2024-02-21T08:29:56;7.85;;;2.45;;
79430;SDS011;68883;45.932;6.060;2024-02-21T08:32:21;7.15;;;2.17;;
79430;SDS011;68883;45.932;6.060;2024-02-21T08:34:47;2.75;;;1.40;;
79430;SDS011;68883;45.932;6.060;2024-02-21T08:37:12;6.38;;;2.10;;
79430;SDS011;68883;45.932;6.060;2024-02-21T08:39:38;4.10;;;1.83;;
79430;SDS011;68883;45.932;6.060;2024-02-21T08:42:04;5.93;;;2.05;;
79430;SDS011;68883;45.932;6.060;2024-02-21T08:44:30;2.92;;;1.55;;
79430;SDS011;68883;45.932;6.060;2024-02-21T08:46:55;3.17;;;1.95;;
79430;SDS011;68883;45.932;6.060;2024-02-21T08:49:21;3.28;;;2.25;;
79430;SDS011;68883;45.932;6.060;2024-02-21T08:51:47;2.13;;;1.67;;
79430;SDS011;68883;45.932;6.060;2024-02-21T08:54:12;2.78;;;1.60;;
79430;SDS011;68883;45.932;6.060;2024-02-21T08:56:38;4.15;;;2.03;;
79430;SDS011;68883;45.932;6.060;2024-02-21T08:59:03;3.13;;;1.98;;
79430;SDS011;68883;45.932;6.060;2024-02-21T09:01:29;4.60;;;2.40;;
79430;SDS011;68883;45.932;6.060;2024-02-21T09:03:54;3.47;;;2.22;;
79430;SDS011;68883;45.932;6.060;2024-02-21T09:08:47;3.47;;;2.08;;
79430;SDS011;68883;45.932;6.060;2024-02-21T09:11:12;6.47;;;2.30;;
79430;SDS011;68883;45.932;6.060;2024-02-21T09:13:38;4.50;;;1.97;;
79430;SDS011;68883;45.932;6.060;2024-02-21T09:16:03;4.10;;;2.30;;
79430;SDS011;68883;45.932;6.060;2024-02-21T09:18:29;4.35;;;2.40;;
79430;SDS011;68883;45.932;6.060;2024-02-21T09:20:55;4.57;;;2.40;;
79430;SDS011;68883;45.932;6.060;2024-02-21T09:23:23;8.93;;;2.73;;
79430;SDS011;68883;45.932;6.060;2024-02-21T09:25:49;5.60;;;2.40;;
79430;SDS011;68883;45.932;6.060;2024-02-21T09:28:15;3.17;;;2.20;;
79430;SDS011;68883;45.932;6.060;2024-02-21T09:30:40;4.60;;;2.53;;
79430;SDS011;68883;45.932;6.060;2024-02-21T09:33:06;5.45;;;2.38;;
79430;SDS011;68883;45.932;6.060;2024-02-21T09:35:31;4.97;;;1.90;;
79430;SDS011;68883;45.932;6.060;2024-02-21T09:37:58;4.47;;;2.60;;
79430;SDS011;68883;45.932;6.060;2024-02-21T09:40:24;3.33;;;2.30;;
79430;SDS011;68883;45.932;6.060;2024-02-21T09:42:50;2.63;;;2.13;;
79430;SDS011;68883;45.932;6.060;2024-02-21T09:45:32;2.83;;;1.98;;
79430;SDS011;68883;45.932;6.060;2024-02-21T09:50:31;5.50;;;2.17;;
79430;SDS011;68883;45.932;6.060;2024-02-21T09:52:59;5.70;;;2.28;;
79430;SDS011;68883;45.932;6.060;2024-02-21T09:55:27;6.78;;;2.85;;
79430;SDS011;68883;45.932;6.060;2024-02-21T09:57:57;3.75;;;2.47;;
79430;SDS011;68883;45.932;6.060;2024-02-21T10:00:24;6.82;;;2.90;;
79430;SDS011;68883;45.932;6.060;2024-02-21T10:02:49;6.10;;;2.50;;
79430;SDS011;68883;45.932;6.060;2024-02-21T10:05:15;6.03;;;2.30;;
79430;SDS011;68883;45.932;6.060;2024-02-21T10:07:42;6.13;;;2.40;;
79430;SDS011;68883;45.932;6.060;2024-02-21T10:10:09;8.07;;;2.10;;
79430;SDS011;68883;45.932;6.060;2024-02-21T10:12:34;2.90;;;2.03;;
79430;SDS011;68883;45.932;6.060;2024-02-21T10:15:03;4.90;;;2.50;;
79430;SDS011;68883;45.932;6.060;2024-02-21T10:17:29;13.10;;;4.20;;
79430;SDS011;68883;45.932;6.060;2024-02-21T10:19:55;5.97;;;3.07;;
79430;SDS011;68883;45.932;6.060;2024-02-21T10:22:20;4.77;;;2.80;;
79430;SDS011;68883;45.932;6.060;2024-02-21T10:24:46;5.37;;;3.37;;
79430;SDS011;68883;45.932;6.060;2024-02-21T10:27:12;5.60;;;3.03;;
79430;SDS011;68883;45.932;6.060;2024-02-21T10:29:38;6.17;;;2.97;;
79430;SDS011;68883;45.932;6.060;2024-02-21T10:32:11;4.05;;;2.75;;
79430;SDS011;68883;45.932;6.060;2024-02-21T10:34:39;4.97;;;2.13;;
79430;SDS011;68883;45.932;6.060;2024-02-21T10:37:06;5.95;;;2.60;;
79430;SDS011;68883;45.932;6.060;2024-02-21T10:39:33;4.25;;;2.42;;
79430;SDS011;68883;45.932;6.060;2024-02-21T10:44:29;4.55;;;2.70;;
79430;SDS011;68883;45.932;6.060;2024-02-21T10:46:57;6.20;;;2.45;;
79430;SDS011;68883;45.932;6.060;2024-02-21T10:49:23;3.75;;;2.33;;
79430;SDS011;68883;45.932;6.060;2024-02-21T10:51:55;6.95;;;3.20;;
79430;SDS011;68883;45.932;6.060;2024-02-21T10:54:53;5.78;;;2.90;;
79430;SDS011;68883;45.932;6.060;2024-02-21T10:57:24;6.70;;;2.60;;
79430;SDS011;68883;45.932;6.060;2024-02-21T10:59:50;5.03;;;2.50;;
79430;SDS011;68883;45.932;6.060;2024-02-21T11:02:16;8.23;;;3.47;;
79430;SDS011;68883;45.932;6.060;2024-02-21T11:04:42;7.17;;;3.10;;
79430;SDS011;68883;45.932;6.060;2024-02-21T11:07:08;6.38;;;2.97;;
79430;SDS011;68883;45.932;6.060;2024-02-21T11:09:34;5.87;;;2.97;;
79430;SDS011;68883;45.932;6.060;2024-02-21T11:12:03;7.57;;;3.20;;
79430;SDS011;68883;45.932;6.060;2024-02-21T11:14:30;5.60;;;3.03;;
79430;SDS011;68883;45.932;6.060;2024-02-21T11:17:14;5.75;;;2.97;;
79430;SDS011;68883;45.932;6.060;2024-02-21T11:19:40;5.38;;;2.70;;
79430;SDS011;68883;45.932;6.060;2024-02-21T11:22:06;4.70;;;2.97;;
79430;SDS011;68883;45.932;6.060;2024-02-21T11:24:40;8.30;;;3.45;;
79430;SDS011;68883;45.932;6.060;2024-02-21T11:27:14;11.25;;;3.53;;
79430;SDS011;68883;45.932;6.060;2024-02-21T11:32:19;8.57;;;2.97;;
79430;SDS011;68883;45.932;6.060;2024-02-21T11:34:58;6.38;;;2.80;;
79430;SDS011;68883;45.932;6.060;2024-02-21T11:37:32;5.43;;;3.30;;
79430;SDS011;68883;45.932;6.060;2024-02-21T11:39:59;3.60;;;1.73;;
79430;SDS011;68883;45.932;6.060;2024-02-21T11:42:25;2.63;;;2.10;;
79430;SDS011;68883;45.932;6.060;2024-02-21T11:44:52;3.63;;;2.08;;
79430;SDS011;68883;45.932;6.060;2024-02-21T11:49:47;6.35;;;1.60;;
79430;SDS011;68883;45.932;6.060;2024-02-21T11:52:15;3.42;;;1.70;;
79430;SDS011;68883;45.932;6.060;2024-02-21T11:54:43;4.28;;;1.70;;
79430;SDS011;68883;45.932;6.060;2024-02-21T11:57:10;1.70;;;0.97;;
79430;SDS011;68883;45.932;6.060;2024-02-21T11:59:36;2.38;;;1.38;;
79430;SDS011;68883;45.932;6.060;2024-02-21T12:02:02;4.43;;;1.20;;
79430;SDS011;68883;45.932;6.060;2024-02-21T12:04:28;2.40;;;1.33;;
79430;SDS011;68883;45.932;6.060;2024-02-21T12:06:56;4.18;;;1.20;;
79430;SDS011;68883;45.932;6.060;2024-02-21T12:09:23;4.60;;;1.50;;
79430;SDS011;68883;45.932;6.060;2024-02-21T12:14:32;4.60;;;1.45;;
79430;SDS011;68883;45.932;6.060;2024-02-21T12:17:00;5.30;;;1.30;;
79430;SDS011;68883;45.932;6.060;2024-02-21T12:19:28;1.80;;;1.10;;
79430;SDS011;68883;45.932;6.060;2024-02-21T12:21:54;4.40;;;1.50;;
79430;SDS011;68883;45.932;6.060;2024-02-21T12:24:24;3.50;;;1.53;;
79430;SDS011;68883;45.932;6.060;2024-02-21T12:26:54;2.47;;;1.60;;
79430;SDS011;68883;45.932;6.060;2024-02-21T12:29:20;1.98;;;1.30;;
79430;SDS011;68883;45.932;6.060;2024-02-21T12:31:46;3.10;;;1.38;;
79430;SDS011;68883;45.932;6.060;2024-02-21T12:34:12;3.90;;;1.98;;
79430;SDS011;68883;45.932;6.060;2024-02-21T12:36:41;2.80;;;1.80;;
79430;SDS011;68883;45.932;6.060;2024-02-21T12:39:08;3.28;;;1.70;;
79430;SDS011;68883;45.932;6.060;2024-02-21T12:41:37;5.90;;;2.30;;
79430;SDS011;68883;45.932;6.060;2024-02-21T12:44:09;3.00;;;2.03;;
79430;SDS011;68883;45.932;6.060;2024-02-21T12:46:38;6.55;;;2.70;;
79430;SDS011;68883;45.932;6.060;2024-02-21T12:49:05;6.13;;;2.70;;
79430;SDS011;68883;45.932;6.060;2024-02-21T12:51:31;5.53;;;2.63;;
79430;SDS011;68883;45.932;6.060;2024-02-21T12:53:57;9.63;;;2.97;;
79430;SDS011;68883;45.932;6.060;2024-02-21T12:56:22;6.60;;;2.73;;
79430;SDS011;68883;45.932;6.060;2024-02-21T12:58:49;4.57;;;2.80;;
79430;SDS011;68883;45.932;6.060;2024-02-21T13:01:14;4.63;;;2.70;;
79430;SDS011;68883;45.932;6.060;2024-02-21T13:03:40;7.00;;;3.35;;
79430;SDS011;68883;45.932;6.060;2024-02-21T13:06:06;4.37;;;2.47;;
79430;SDS011;68883;45.932;6.060;2024-02-21T13:08:38;4.65;;;2.78;;
79430;SDS011;68883;45.932;6.060;2024-02-21T13:11:05;4.40;;;2.70;;
79430;SDS011;68883;45.932;6.060;2024-02-21T13:13:30;4.83;;;3.10;;
79430;SDS011;68883;45.932;6.060;2024-02-21T13:15:57;3.50;;;2.20;;
79430;SDS011;68883;45.932;6.060;2024-02-21T13:18:23;4.32;;;2.22;;
79430;SDS011;68883;45.932;6.060;2024-02-21T13:20:48;6.23;;;2.20;;
79430;SDS011;68883;45.932;6.060;2024-02-21T13:23:14;3.37;;;1.87;;
79430;SDS011;68883;45.932;6.060;2024-02-21T13:25:39;3.10;;;2.23;;
79430;SDS011;68883;45.932;6.060;2024-02-21T13:28:05;4.27;;;2.33;;
79430;SDS011;68883;45.932;6.060;2024-02-21T13:30:30;3.53;;;2.10;;
79430;SDS011;68883;45.932;6.060;2024-02-21T13:32:56;3.90;;;2.00;;
79430;SDS011;68883;45.932;6.060;2024-02-21T13:35:21;6.00;;;2.27;;
79430;SDS011;68883;45.932;6.060;2024-02-21T13:37:47;8.13;;;2.37;;
79430;SDS011;68883;45.932;6.060;2024-02-21T13:40:12;3.63;;;1.97;;
79430;SDS011;68883;45.932;6.060;2024-02-21T13:42:38;3.25;;;1.73;;
79430;SDS011;68883;45.932;6.060;2024-02-21T13:45:04;6.70;;;1.70;;
79430;SDS011;68883;45.932;6.060;2024-02-21T13:47:31;3.30;;;1.65;;
79430;SDS011;68883;45.932;6.060;2024-02-21T13:49:57;3.13;;;2.00;;
79430;SDS011;68883;45.932;6.060;2024-02-21T13:52:23;3.93;;;1.97;;
79430;SDS011;68883;45.932;6.060;2024-02-21T13:54:51;5.50;;;2.17;;
79430;SDS011;68883;45.932;6.060;2024-02-21T13:57:17;6.32;;;1.85;;
79430;SDS011;68883;45.932;6.060;2024-02-21T13:59:43;4.20;;;1.67;;
79430;SDS011;68883;45.932;6.060;2024-02-21T14:02:09;2.80;;;1.83;;
79430;SDS011;68883;45.932;6.060;2024-02-21T14:04:35;3.25;;;1.77;;
79430;SDS011;68883;45.932;6.060;2024-02-21T14:07:01;3.57;;;1.90;;
79430;SDS011;68883;45.932;6.060;2024-02-21T14:09:26;4.67;;;1.50;;
79430;SDS011;68883;45.932;6.060;2024-02-21T14:11:54;4.78;;;1.98;;
79430;SDS011;68883;45.932;6.060;2024-02-21T14:14:20;3.37;;;1.60;;
79430;SDS011;68883;45.932;6.060;2024-02-21T14:16:46;2.70;;;1.50;;
79430;SDS011;68883;45.932;6.060;2024-02-21T14:19:13;3.05;;;1.73;;
79430;SDS011;68883;45.932;6.060;2024-02-21T14:21:39;2.13;;;1.45;;
79430;SDS011;68883;45.932;6.060;2024-02-21T14:24:05;3.53;;;1.47;;
79430;SDS011;68883;45.932;6.060;2024-02-21T14:26:31;2.50;;;1.10;;
79430;SDS011;68883;45.932;6.060;2024-02-21T14:28:57;5.17;;;1.60;;
79430;SDS011;68883;45.932;6.060;2024-02-21T14:31:23;3.57;;;1.50;;
79430;SDS011;68883;45.932;6.060;2024-02-21T14:33:48;2.23;;;1.40;;
79430;SDS011;68883;45.932;6.060;2024-02-21T14:36:14;1.87;;;1.33;;
79430;SDS011;68883;45.932;6.060;2024-02-21T14:38:42;2.70;;;1.30;;
79430;SDS011;68883;45.932;6.060;2024-02-21T14:41:09;5.90;;;1.90;;
79430;SDS011;68883;45.932;6.060;2024-02-21T14:43:37;3.40;;;1.60;;
79430;SDS011;68883;45.932;6.060;2024-02-21T14:46:03;6.65;;;1.40;;
79430;SDS011;68883;45.932;6.060;2024-02-21T14:48:29;1.98;;;1.30;;
79430;SDS011;68883;45.932;6.060;2024-02-21T14:50:57;3.40;;;1.75;;
79430;SDS011;68883;45.932;6.060;2024-02-21T14:53:23;3.17;;;1.30;;
79430;SDS011;68883;45.932;6.060;2024-02-21T14:55:49;3.67;;;1.33;;
79430;SDS011;68883;45.932;6.060;2024-02-21T14:58:15;3.65;;;1.35;;
79430;SDS011;68883;45.932;6.060;2024-02-21T15:00:43;2.38;;;1.25;;
79430;SDS011;68883;45.932;6.060;2024-02-21T15:03:09;2.57;;;1.60;;
79430;SDS011;68883;45.932;6.060;2024-02-21T15:05:35;2.72;;;1.30;;
79430;SDS011;68883;45.932;6.060;2024-02-21T15:08:01;3.30;;;1.60;;
79430;SDS011;68883;45.932;6.060;2024-02-21T15:10:27;2.83;;;1.57;;
79430;SDS011;68883;45.932;6.060;2024-02-21T15:12:52;2.83;;;1.70;;
79430;SDS011;68883;45.932;6.060;2024-02-21T15:15:18;3.67;;;1.87;;
79430;SDS011;68883;45.932;6.060;2024-02-21T15:17:44;3.30;;;1.70;;